createdAt,value
2022-09-12T00:01:37.537Z,10.57
2022-09-12T00:04:07.391Z,10.15
2022-09-12T00:06:38.225Z,8.65
2022-09-12T00:09:10.503Z,8.63
2022-09-12T00:11:43.628Z,8.88
2022-09-12T00:14:16.881Z,10.65
2022-09-12T00:16:46.805Z,8.40
2022-09-12T00:19:17.009Z,8.57
2022-09-12T00:21:47.355Z,12.35
2022-09-12T00:24:17.159Z,8.05
2022-09-12T00:26:48.838Z,9.35
2022-09-12T00:29:20.917Z,12.90
2022-09-12T00:31:50.850Z,9.30
2022-09-12T00:34:20.825Z,11.63
2022-09-12T00:36:50.585Z,8.00
2022-09-12T00:39:20.333Z,10.25
2022-09-12T00:41:51.652Z,11.43
2022-09-12T00:44:45.079Z,13.98
2022-09-12T00:47:20.589Z,13.27
2022-09-12T00:49:56.518Z,11.57
2022-09-12T00:52:32.007Z,12.52
2022-09-12T00:55:06.781Z,10.85
2022-09-12T00:57:44.603Z,11.60
2022-09-12T01:00:16.737Z,10.98
2022-09-12T01:02:50.024Z,10.98
2022-09-12T01:05:20.963Z,11.98
2022-09-12T01:07:52.806Z,10.27
2022-09-12T01:10:23.348Z,11.27
2022-09-12T01:12:55.259Z,10.52
2022-09-12T01:15:25.645Z,13.57
2022-09-12T01:18:08.845Z,12.65
2022-09-12T01:21:07.790Z,10.45
2022-09-12T01:24:19.255Z,12.10
2022-09-12T01:27:29.406Z,10.25
2022-09-12T01:30:33.851Z,11.23
2022-09-12T01:33:23.911Z,11.32
2022-09-12T01:36:07.357Z,13.05
2022-09-12T01:38:40.682Z,12.55
2022-09-12T01:41:18.617Z,11.65
2022-09-12T01:43:52.407Z,12.60
2022-09-12T01:49:02.464Z,11.00
2022-09-12T01:51:37.443Z,13.32
2022-09-12T01:54:11.744Z,9.13
2022-09-12T01:56:45.110Z,13.20
2022-09-12T01:59:20.035Z,14.57
2022-09-12T02:01:56.791Z,9.65
2022-09-12T02:04:34.253Z,12.52
2022-09-12T02:07:12.418Z,9.00
2022-09-12T02:09:47.333Z,10.88
2022-09-12T02:12:21.968Z,10.23
2022-09-12T02:14:56.922Z,10.02
2022-09-12T02:17:28.267Z,11.32
2022-09-12T02:20:03.560Z,9.60
2022-09-12T02:22:37.451Z,10.68
2022-09-12T02:25:10.450Z,8.90
2022-09-12T02:27:44.224Z,10.68
2022-09-12T02:32:58.364Z,9.05
2022-09-12T02:35:37.780Z,9.57
2022-09-12T02:38:11.289Z,11.60
2022-09-12T02:40:41.820Z,8.73
2022-09-12T02:43:11.627Z,9.35
2022-09-12T02:45:42.165Z,9.52
2022-09-12T02:48:17.347Z,11.60
2022-09-12T02:50:49.159Z,9.80
2022-09-12T02:53:19.680Z,8.55
2022-09-12T02:55:49.836Z,10.13
2022-09-12T02:58:24.574Z,9.48
2022-09-12T03:01:08.971Z,9.52
2022-09-12T03:04:00.434Z,8.77
2022-09-12T03:06:38.739Z,8.63
2022-09-12T03:09:16.926Z,9.00
2022-09-12T03:12:11.803Z,10.27
2022-09-12T03:15:02.143Z,9.98
2022-09-12T03:17:45.300Z,10.73
2022-09-12T03:20:23.468Z,8.75
2022-09-12T03:22:57.345Z,8.80
2022-09-12T03:25:32.111Z,7.97
2022-09-12T03:28:08.152Z,11.13
2022-09-12T03:30:42.287Z,15.68
2022-09-12T03:33:13.104Z,11.73
2022-09-12T03:35:44.793Z,10.15
2022-09-12T03:38:14.928Z,10.52
2022-09-12T03:40:44.857Z,8.13
2022-09-12T03:43:14.960Z,10.85
2022-09-12T03:45:44.727Z,9.27
2022-09-12T03:48:14.530Z,18.73
2022-09-12T03:50:45.726Z,8.48
2022-09-12T03:53:17.400Z,7.75
2022-09-12T03:55:48.767Z,9.13
2022-09-12T03:58:18.627Z,8.30
2022-09-12T04:00:48.505Z,8.52
2022-09-12T04:03:19.364Z,8.30
2022-09-12T04:05:50.606Z,8.68
2022-09-12T04:08:20.323Z,8.05
2022-09-12T04:10:50.753Z,9.98
2022-09-12T04:13:20.556Z,8.98
2022-09-12T04:15:57.792Z,8.40
2022-09-12T04:18:27.891Z,7.88
2022-09-12T04:20:59.416Z,9.48
2022-09-12T04:23:29.135Z,7.68
2022-09-12T04:26:00.833Z,9.65
2022-09-12T04:28:30.970Z,8.38
2022-09-12T04:31:03.219Z,9.70
2022-09-12T04:33:33.105Z,10.88
2022-09-12T04:36:10.722Z,8.52
2022-09-12T04:38:40.493Z,8.68
2022-09-12T04:41:14.000Z,8.93
2022-09-12T04:43:46.339Z,7.50
2022-09-12T04:46:19.847Z,7.88
2022-09-12T04:48:54.515Z,10.02
2022-09-12T04:51:29.816Z,11.80
2022-09-12T04:54:01.557Z,8.90
2022-09-12T04:56:31.947Z,9.77
2022-09-12T04:59:02.668Z,7.22
2022-09-12T05:01:32.636Z,7.47
2022-09-12T05:04:03.787Z,6.47
2022-09-12T05:06:37.211Z,8.30
2022-09-12T05:09:08.812Z,7.55
2022-09-12T05:12:03.081Z,7.28
2022-09-12T05:14:32.511Z,8.20
2022-09-12T05:17:02.993Z,8.73
2022-09-12T05:19:33.562Z,6.53
2022-09-12T05:22:06.742Z,6.43
2022-09-12T05:24:37.928Z,8.00
2022-09-12T05:27:07.816Z,6.90
2022-09-12T05:29:37.626Z,8.63
2022-09-12T05:32:07.404Z,6.97
2022-09-12T05:34:37.998Z,6.47
2022-09-12T05:37:09.237Z,9.18
2022-09-12T05:39:38.971Z,7.60
2022-09-12T05:42:09.091Z,11.23
2022-09-12T05:44:38.862Z,7.95
2022-09-12T05:47:08.797Z,5.43
2022-09-12T05:49:38.572Z,6.00
2022-09-12T05:52:10.146Z,6.45
2022-09-12T05:54:41.270Z,5.68
2022-09-12T05:57:11.096Z,6.75
2022-09-12T05:59:40.819Z,6.10
2022-09-12T06:02:12.979Z,5.22
2022-09-12T06:04:43.839Z,5.30
2022-09-12T06:07:15.592Z,4.93
2022-09-12T06:09:45.340Z,10.05
2022-09-12T06:12:15.118Z,5.65
2022-09-12T06:14:44.908Z,10.73
2022-09-12T06:17:14.607Z,5.32
2022-09-12T06:19:44.481Z,6.43
2022-09-12T06:22:15.659Z,11.50
2022-09-12T06:24:45.821Z,28.13
2022-09-12T06:27:16.198Z,8.48
2022-09-12T06:29:46.004Z,13.93
2022-09-12T06:32:16.608Z,6.20
2022-09-12T06:34:48.495Z,5.50
2022-09-12T06:37:20.077Z,4.80
2022-09-12T06:39:49.975Z,3.78
2022-09-12T06:42:20.089Z,5.13
2022-09-12T06:44:50.539Z,7.28
2022-09-12T06:47:21.189Z,8.52
2022-09-12T06:49:51.229Z,8.85
2022-09-12T06:52:22.356Z,8.27
2022-09-12T06:54:52.147Z,4.45
2022-09-12T06:57:22.027Z,6.90
2022-09-12T06:59:52.356Z,5.20
2022-09-12T07:02:22.223Z,8.13
2022-09-12T07:04:52.349Z,3.47
2022-09-12T07:07:24.204Z,3.42
2022-09-12T07:09:54.112Z,6.10
2022-09-12T07:12:24.071Z,4.93
2022-09-12T07:14:54.164Z,8.10
2022-09-12T07:17:24.315Z,4.68
2022-09-12T07:19:54.044Z,10.20
2022-09-12T07:22:25.311Z,8.75
2022-09-12T07:24:55.841Z,5.93
2022-09-12T07:27:25.682Z,3.13
2022-09-12T07:29:55.998Z,3.40
2022-09-12T07:32:26.118Z,5.55
2022-09-12T07:34:56.011Z,7.53
2022-09-12T07:37:29.516Z,3.25
2022-09-12T07:39:59.746Z,2.60
2022-09-12T07:42:29.706Z,7.57
2022-09-12T07:45:00.537Z,6.22
2022-09-12T07:47:30.286Z,3.38
2022-09-12T07:50:00.266Z,2.20
2022-09-12T07:52:31.695Z,5.20
2022-09-12T07:55:01.587Z,6.03
2022-09-12T07:57:31.615Z,3.47
2022-09-12T08:00:01.610Z,3.88
2022-09-12T08:02:31.664Z,8.52
2022-09-12T08:05:02.558Z,4.93
2022-09-12T08:07:34.229Z,3.47
2022-09-12T08:10:04.282Z,2.67
2022-09-12T08:12:34.664Z,5.00
2022-09-12T08:15:06.520Z,11.27
2022-09-12T08:17:36.518Z,4.28
2022-09-12T08:20:07.332Z,2.47
2022-09-12T08:22:39.934Z,4.55
2022-09-12T08:25:10.522Z,1.98
2022-09-12T08:27:40.830Z,5.88
2022-09-12T08:30:11.986Z,4.28
2022-09-12T08:32:41.750Z,2.90
2022-09-12T08:35:11.979Z,3.80
2022-09-12T08:38:01.275Z,2.83
2022-09-12T08:40:31.641Z,3.70
2022-09-12T08:43:09.436Z,3.55
2022-09-12T08:45:48.248Z,2.95
2022-09-12T08:48:18.131Z,3.33
2022-09-12T08:50:49.914Z,1.42
2022-09-12T08:53:24.889Z,2.70
2022-09-12T08:55:59.627Z,5.75
2022-09-12T08:58:30.769Z,2.13
2022-09-12T09:01:08.545Z,2.72
2022-09-12T09:04:08.167Z,3.15
2022-09-12T09:06:58.538Z,3.13
2022-09-12T09:09:41.426Z,2.85
2022-09-12T09:12:23.540Z,3.60
2022-09-12T09:15:22.153Z,2.17
2022-09-12T09:17:56.428Z,4.70
2022-09-12T09:20:31.760Z,3.78
2022-09-12T09:23:08.701Z,4.35
2022-09-12T09:25:50.732Z,4.15
2022-09-12T09:28:24.941Z,2.70
2022-09-12T09:33:27.479Z,2.17
2022-09-12T09:36:04.406Z,3.05
2022-09-12T09:38:45.899Z,1.60
2022-09-12T09:41:35.543Z,4.72
2022-09-12T09:44:05.787Z,4.32
2022-09-12T09:46:35.771Z,2.83
2022-09-12T09:49:09.212Z,7.18
2022-09-12T09:51:41.830Z,2.90
2022-09-12T09:54:21.264Z,3.25
2022-09-12T09:56:52.572Z,2.40
2022-09-12T09:59:28.420Z,4.25
2022-09-12T10:02:03.652Z,3.22
2022-09-12T10:04:41.084Z,2.85
2022-09-12T10:07:21.170Z,2.17
2022-09-12T10:10:07.052Z,2.40
2022-09-12T10:12:38.488Z,3.50
2022-09-12T10:15:19.347Z,2.38
2022-09-12T10:17:51.050Z,3.78
2022-09-12T10:20:37.313Z,2.60
2022-09-12T10:23:28.489Z,5.13
2022-09-12T10:26:01.813Z,5.82
2022-09-12T10:28:37.426Z,2.22
2022-09-12T10:31:09.688Z,2.25
2022-09-12T10:33:45.277Z,1.35
2022-09-12T10:36:16.783Z,5.47
2022-09-12T10:38:52.300Z,5.55
2022-09-12T10:41:23.023Z,3.08
2022-09-12T10:43:54.199Z,2.25
2022-09-12T10:46:30.571Z,3.17
2022-09-12T10:49:21.177Z,5.20
2022-09-12T10:51:51.919Z,3.92
2022-09-12T10:54:24.796Z,1.30
2022-09-12T10:57:08.628Z,3.17
2022-09-12T10:59:52.815Z,6.05
2022-09-12T11:02:29.667Z,3.08
2022-09-12T11:05:08.027Z,3.15
2022-09-12T11:07:43.888Z,1.00
2022-09-12T11:10:38.786Z,1.90
2022-09-12T11:13:23.944Z,1.67
2022-09-12T11:16:08.136Z,3.65
2022-09-12T11:18:56.792Z,1.33
2022-09-12T11:21:45.808Z,4.05
2022-09-12T11:24:30.634Z,1.63
2022-09-12T11:27:15.950Z,4.50
2022-09-12T11:29:51.025Z,2.50
2022-09-12T11:32:47.606Z,2.35
2022-09-12T11:35:25.837Z,2.75
2022-09-12T11:38:25.087Z,2.42
2022-09-12T11:40:57.543Z,3.00
2022-09-12T11:43:37.994Z,3.30
2022-09-12T11:46:19.623Z,4.93
2022-09-12T11:48:59.050Z,2.10
2022-09-12T11:51:35.107Z,4.65
2022-09-12T11:54:15.046Z,3.38
2022-09-12T11:56:48.290Z,3.33
2022-09-12T11:59:38.155Z,1.67
2022-09-12T12:02:15.644Z,1.58
2022-09-12T12:05:02.992Z,2.47
2022-09-12T12:07:45.668Z,1.95
2022-09-12T12:10:28.566Z,2.25
2022-09-12T12:13:02.037Z,2.03
2022-09-12T12:15:32.595Z,2.13
2022-09-12T12:18:08.921Z,3.35
2022-09-12T12:20:40.269Z,2.80
2022-09-12T12:23:24.291Z,1.50
2022-09-12T12:25:56.585Z,1.33
2022-09-12T12:28:57.389Z,2.90
2022-09-12T12:31:27.828Z,1.88
2022-09-12T12:34:06.635Z,4.20
2022-09-12T12:36:40.435Z,3.40
2022-09-12T12:39:49.980Z,1.65
2022-09-12T12:42:58.757Z,2.88
2022-09-12T12:46:13.136Z,2.13
2022-09-12T12:48:56.789Z,6.50
2022-09-12T12:51:36.295Z,2.55
2022-09-12T12:54:30.808Z,5.63
2022-09-12T12:57:18.746Z,3.13
2022-09-12T12:59:54.235Z,1.90
2022-09-12T13:02:30.274Z,2.05
2022-09-12T13:05:02.452Z,1.60
2022-09-12T13:07:36.307Z,1.10
2022-09-12T13:10:09.483Z,1.88
2022-09-12T13:12:47.082Z,2.10
2022-09-12T13:15:49.849Z,1.70
2022-09-12T13:18:26.171Z,3.75
2022-09-12T13:21:04.999Z,2.15
2022-09-12T13:23:35.443Z,4.10
2022-09-12T13:26:12.900Z,1.33
2022-09-12T13:28:42.934Z,1.02
2022-09-12T13:31:24.865Z,2.35
2022-09-12T13:33:57.917Z,5.95
2022-09-12T13:37:27.691Z,2.88
2022-09-12T13:40:07.505Z,2.17
2022-09-12T13:42:43.509Z,3.53
2022-09-12T13:45:18.456Z,2.95
2022-09-12T13:47:55.316Z,2.10
2022-09-12T13:50:32.226Z,2.03
2022-09-12T13:53:06.933Z,2.05
2022-09-12T13:55:41.639Z,2.17
2022-09-12T13:58:21.620Z,2.85
2022-09-12T14:01:14.390Z,5.78
2022-09-12T14:04:08.726Z,6.97
2022-09-12T14:06:49.681Z,5.38
2022-09-12T14:09:25.475Z,2.17
2022-09-12T14:11:55.874Z,4.38
2022-09-12T14:14:32.947Z,3.55
2022-09-12T14:17:03.245Z,5.93
2022-09-12T14:19:34.564Z,2.75
2022-09-12T14:22:04.988Z,1.50
2022-09-12T14:24:34.945Z,2.45
2022-09-12T14:27:06.403Z,2.90
2022-09-12T14:29:37.965Z,7.40
2022-09-12T14:32:22.680Z,5.65
2022-09-12T14:35:06.482Z,1.60
2022-09-12T14:37:36.679Z,1.00
2022-09-12T14:40:19.373Z,1.30
2022-09-12T14:42:51.463Z,3.20
2022-09-12T14:45:32.031Z,4.55
2022-09-12T14:48:02.154Z,2.38
2022-09-12T14:50:37.240Z,3.75
2022-09-12T14:53:08.797Z,2.13
2022-09-12T14:55:45.399Z,3.15
2022-09-12T14:58:23.572Z,1.75
2022-09-12T15:01:00.319Z,2.85
2022-09-12T15:03:33.225Z,1.60
2022-09-12T15:06:04.926Z,2.87
2022-09-12T15:08:34.823Z,2.20
2022-09-12T15:11:07.804Z,1.77
2022-09-12T15:13:41.821Z,1.92
2022-09-12T15:16:13.964Z,3.67
2022-09-12T15:18:44.186Z,3.25
2022-09-12T15:21:17.686Z,3.50
2022-09-12T15:23:49.483Z,2.35
2022-09-12T15:26:21.829Z,3.03
2022-09-12T15:28:52.262Z,2.03
2022-09-12T15:31:27.217Z,2.60
2022-09-12T15:33:59.172Z,1.52
2022-09-12T15:36:30.073Z,2.97
2022-09-12T15:39:00.031Z,3.58
2022-09-12T15:41:34.143Z,4.07
2022-09-12T15:44:05.211Z,4.32
2022-09-12T15:46:36.501Z,4.40
2022-09-12T15:49:07.064Z,8.88
2022-09-12T15:51:37.163Z,5.45
2022-09-12T15:54:06.997Z,2.20
2022-09-12T15:56:37.032Z,2.30
2022-09-12T15:59:07.119Z,2.75
2022-09-12T16:01:38.540Z,2.10
2022-09-12T16:04:21.867Z,2.22
2022-09-12T16:06:52.051Z,2.40
2022-09-12T16:09:22.849Z,2.33
2022-09-12T16:11:52.839Z,2.80
2022-09-12T16:14:22.844Z,4.82
2022-09-12T16:16:57.482Z,2.95
2022-09-12T16:19:27.369Z,2.70
2022-09-12T16:21:57.357Z,2.95
2022-09-12T16:24:27.367Z,3.15
2022-09-12T16:27:00.981Z,5.93
2022-09-12T16:29:31.391Z,6.70
2022-09-12T16:32:03.354Z,6.32
2022-09-12T16:34:33.236Z,7.78
2022-09-12T16:37:03.242Z,4.90
2022-09-12T16:39:34.481Z,5.43
2022-09-12T16:42:05.031Z,5.25
2022-09-12T16:44:34.980Z,6.45
2022-09-12T16:47:06.676Z,7.10
2022-09-12T16:49:36.455Z,6.20
2022-09-12T16:52:06.894Z,5.80
2022-09-12T16:54:37.090Z,12.00
2022-09-12T16:57:07.322Z,7.03
2022-09-12T16:59:37.547Z,6.22
2022-09-12T17:02:09.250Z,7.28
2022-09-12T17:04:39.315Z,9.80
2022-09-12T17:07:10.176Z,8.13
2022-09-12T17:09:40.332Z,5.88
2022-09-12T17:12:10.484Z,6.75
2022-09-12T17:14:40.350Z,5.82
2022-09-12T17:17:11.882Z,8.55
2022-09-12T17:19:43.416Z,8.30
2022-09-12T17:22:13.421Z,8.10
2022-09-12T17:24:43.433Z,7.18
2022-09-12T17:27:13.571Z,8.07
2022-09-12T17:29:43.569Z,8.00
2022-09-12T17:32:17.555Z,7.90
2022-09-12T17:34:47.559Z,6.47
2022-09-12T17:37:17.776Z,7.22
2022-09-12T17:39:47.764Z,6.07
2022-09-12T17:42:17.964Z,6.05
2022-09-12T17:44:48.179Z,6.75
2022-09-12T17:47:19.633Z,6.90
2022-09-12T17:49:50.703Z,10.98
2022-09-12T17:52:21.463Z,6.55
2022-09-12T17:54:51.651Z,8.70
2022-09-12T17:57:21.497Z,6.55
2022-09-12T17:59:51.622Z,6.88
2022-09-12T18:02:21.941Z,6.75
2022-09-12T18:04:51.891Z,7.55
2022-09-12T18:07:22.229Z,7.82
2022-09-12T18:09:52.666Z,6.85
2022-09-12T18:12:22.554Z,7.45
2022-09-12T18:14:52.533Z,7.28
2022-09-12T18:17:23.707Z,7.07
2022-09-12T18:19:54.876Z,8.23
2022-09-12T18:22:24.942Z,7.07
2022-09-12T18:24:54.822Z,9.00
2022-09-12T18:27:24.897Z,7.65
2022-09-12T18:30:17.125Z,9.00
2022-09-12T18:32:46.757Z,6.97
2022-09-12T18:35:18.048Z,6.75
2022-09-12T18:37:47.978Z,7.05
2022-09-12T18:40:18.530Z,7.00
2022-09-12T18:42:48.409Z,8.15
2022-09-12T18:45:18.476Z,7.22
2022-09-12T18:47:49.934Z,10.70
2022-09-12T18:50:19.732Z,7.93
2022-09-12T18:52:49.518Z,9.90
2022-09-12T18:55:20.109Z,7.50
2022-09-12T18:57:50.562Z,8.40
2022-09-12T19:00:21.455Z,7.43
2022-09-12T19:02:52.671Z,7.80
2022-09-12T19:05:22.471Z,9.82
2022-09-12T19:07:52.663Z,8.98
2022-09-12T19:10:22.731Z,8.13
2022-09-12T19:12:52.877Z,8.77
2022-09-12T19:15:23.125Z,8.65
2022-09-12T19:17:54.540Z,9.95
2022-09-12T19:20:24.418Z,8.68
2022-09-12T19:22:54.198Z,8.98
2022-09-12T19:25:24.597Z,9.15
2022-09-12T19:27:54.435Z,8.98
2022-09-12T19:30:24.356Z,10.65
2022-09-12T19:32:55.568Z,9.57
2022-09-12T19:35:25.481Z,10.73
2022-09-12T19:37:55.736Z,9.75
2022-09-12T19:40:25.779Z,9.95
2022-09-12T19:42:55.568Z,8.95
2022-09-12T19:45:25.737Z,8.23
2022-09-12T19:47:56.921Z,9.07
2022-09-12T19:50:27.309Z,8.65
2022-09-12T19:52:57.070Z,9.88
2022-09-12T19:55:27.261Z,9.38
2022-09-12T19:57:57.079Z,9.45
2022-09-12T20:00:27.037Z,9.88
2022-09-12T20:02:58.228Z,9.10
2022-09-12T20:05:28.224Z,9.00
2022-09-12T20:07:58.866Z,11.70
2022-09-12T20:10:29.128Z,8.27
2022-09-12T20:12:58.961Z,8.93
2022-09-12T20:15:29.125Z,9.20
2022-09-12T20:18:00.358Z,9.13
2022-09-12T20:20:30.341Z,9.75
2022-09-12T20:23:01.069Z,9.15
2022-09-12T20:25:30.981Z,9.40
2022-09-12T20:28:00.934Z,9.25
2022-09-12T20:30:31.020Z,11.57
2022-09-12T20:33:02.478Z,9.25
2022-09-12T20:35:32.470Z,9.57
2022-09-12T20:38:02.459Z,9.35
2022-09-12T20:40:32.318Z,8.85
2022-09-12T20:43:02.085Z,8.07
2022-09-12T20:45:31.846Z,7.82
2022-09-12T20:48:03.330Z,8.30
2022-09-12T20:50:33.264Z,8.65
2022-09-12T20:53:03.072Z,7.95
2022-09-12T20:55:32.965Z,9.63
2022-09-12T20:58:03.359Z,7.57
2022-09-12T21:00:33.281Z,10.43
2022-09-12T21:03:05.228Z,8.18
2022-09-12T21:05:35.164Z,9.30
2022-09-12T21:08:05.046Z,8.48
2022-09-12T21:10:35.987Z,8.27
2022-09-12T21:13:05.742Z,7.60
2022-09-12T21:15:35.502Z,8.65
2022-09-12T21:18:06.831Z,8.40
2022-09-12T21:20:36.711Z,8.43
2022-09-12T21:23:06.476Z,8.27
2022-09-12T21:25:36.274Z,9.88
2022-09-12T21:28:06.232Z,9.13
2022-09-12T21:30:36.037Z,8.25
2022-09-12T21:33:08.665Z,8.80
2022-09-12T21:35:39.048Z,8.40
2022-09-12T21:38:09.404Z,8.27
2022-09-12T21:40:39.658Z,9.13
2022-09-12T21:43:12.765Z,8.75
2022-09-12T21:45:42.868Z,9.48
2022-09-12T21:48:13.975Z,7.25
2022-09-12T21:50:44.364Z,8.65
2022-09-12T21:53:14.136Z,9.38
2022-09-12T21:55:44.059Z,7.72
2022-09-12T21:58:13.803Z,8.32
2022-09-12T22:00:44.393Z,8.32
2022-09-12T22:03:15.941Z,9.57
2022-09-12T22:05:45.832Z,7.88
2022-09-12T22:08:15.483Z,7.57
2022-09-12T22:10:45.237Z,8.07
2022-09-12T22:13:15.004Z,7.95
2022-09-12T22:15:45.686Z,8.15
2022-09-12T22:18:16.810Z,8.85
2022-09-12T22:20:47.310Z,7.93
2022-09-12T22:23:34.775Z,8.80
2022-09-12T22:26:04.812Z,7.95
2022-09-12T22:28:35.859Z,8.73
2022-09-12T22:31:06.681Z,8.15
2022-09-12T22:33:38.184Z,9.90
2022-09-12T22:36:09.779Z,6.90
2022-09-12T22:38:40.536Z,8.70
2022-09-12T22:41:13.187Z,8.15
2022-09-12T22:43:43.183Z,12.48
2022-09-12T22:46:13.409Z,13.55
2022-09-12T22:48:44.701Z,8.05
2022-09-12T22:51:14.776Z,7.85
2022-09-12T22:53:44.960Z,7.65
2022-09-12T22:56:14.859Z,7.45
2022-09-12T22:58:44.580Z,8.20
2022-09-12T23:01:14.513Z,7.40
2022-09-12T23:03:46.090Z,7.00
2022-09-12T23:06:16.033Z,7.78
2022-09-12T23:08:46.229Z,6.75
2022-09-12T23:11:17.768Z,7.18
2022-09-12T23:13:49.432Z,8.57
2022-09-12T23:16:21.496Z,8.13
2022-09-12T23:18:53.633Z,7.85
2022-09-12T23:21:23.561Z,7.03
2022-09-12T23:23:53.741Z,8.05
2022-09-12T23:26:25.655Z,7.40
2022-09-12T23:28:57.498Z,7.05
2022-09-12T23:31:30.041Z,8.00
2022-09-12T23:34:05.942Z,8.65
2022-09-12T23:36:35.865Z,7.78
2022-09-12T23:39:06.218Z,7.68
2022-09-12T23:41:36.143Z,6.80
2022-09-12T23:44:06.044Z,6.63
2022-09-12T23:46:35.820Z,7.53
2022-09-12T23:49:07.413Z,9.38
2022-09-12T23:51:37.344Z,7.15
2022-09-12T23:54:08.705Z,7.68
2022-09-12T23:56:38.554Z,6.80
2022-09-12T23:59:09.302Z,6.82
